Cameron Mills, New York
Current Conditions -  °F | °C
As of 5:53 PM on Tuesday 25 Nov 2014 (Local Time) from KELM Reporting Station
Clear Clear  
Wind Chill: 35°   Ceiling: Unl
Heat Index: 39°   Visibility: 10mi
Dew Point: 26°   Wind: 6mph
Humidity: 60%   Direction: 230°SW
Pressure: 30"   Gusts: NA
Location:  42.18°N, 77.36°W
Report Text: KELM 252253Z AUTO 23005KT 10SM CLR 04/M03 A3000 RMK AO2 SLP167 T00391033
Loading
Personal Weather Stations






























Interactive Weather Map New forecast layout! Learn more

10-Day Weather Forecast

Advertisements
Track Severe Weather on mobile